Flight Track Log - Related Links

Times and Time Zones

All times are in EDT time to prevent confusion due to time zone crossing. See the N6245S flight status page for this flight to view local times or setup timezone preferences in your user account.

Time Position Orientation Groundspeed Altitude Reporting Facility
EDT Latitude Longitude Course Direction KTS MPH feet Rate Location/Type
Sun 09:27:32 AM 32.5386 -90.1167 323° Northwest 100 115 3,200  Level Memphis Center
Sun 09:28:33 AM 32.5597 -90.1356 323° Northwest 98 113 4,000 639 Climbing Memphis Center
Sun 09:29:34 AM 32.5811 -90.1517 328° Northwest 95 109 4,500 244 Climbing Memphis Center
Sun 09:30:36 AM 32.6133 -90.1647 341° North 120 138 4,500 -49 Level Memphis Center
Sun 09:31:37 AM 32.6483 -90.1981 321° Northwest 131 151 4,400 -49 Descending Memphis Center
Sun 09:32:39 AM 32.6744 -90.2317 313° West 136 157 4,400  Level Memphis Center
Sun 09:33:40 AM 32.6969 -90.2675 307° West 136 157 4,400  Level Memphis Center
Sun 09:34:41 AM 32.7272 -90.2944 323° Northwest 135 155 4,400 -49 Level Memphis Center
Sun 09:35:43 AM 32.7611 -90.3186 329° Northwest 139 160 4,300  Descending Memphis Center
Sun 09:36:44 AM 32.7947 -90.3422 329° Northwest 140 161 4,400 49 Climbing Memphis Center
Sun 09:37:46 AM 32.8275 -90.3672 327° Northwest 141 162 4,400 49 Level Memphis Center
Sun 09:38:47 AM 32.8664 -90.3936 330° Northwest 137 158 4,500 98 Climbing Memphis Center
Sun 09:39:49 AM 32.8975 -90.4194 325° Northwest 137 158 4,600 49 Climbing Memphis Center
Sun 09:40:50 AM 32.9222 -90.4528 311° West 136 157 4,600  Level Memphis Center
Sun 09:41:52 AM 32.9467 -90.4872 310° West 136 157 4,600 49 Level Memphis Center
Sun 09:42:53 AM 32.9647 -90.5267 299° West 137 158 4,700 49 Climbing Memphis Center
Sun 09:43:54 AM 32.9842 -90.5644 302° West 136 157 4,700  Level Memphis Center
Sun 09:44:56 AM 33.0206 -90.5836 336° Northwest 137 158 4,700 -49 Level Memphis Center
Sun 09:45:57 AM 33.0639 -90.6058 337° Northwest 140 161 4,600  Descending Memphis Center
Sun 09:46:59 AM 33.0931 -90.6333 322° Northwest 136 157 4,700  Climbing Memphis Center
Sun 09:48:01 AM 33.1269 -90.6561 331° Northwest 137 158 4,600 -49 Descending Memphis Center
Sun 09:49:02 AM 33.1586 -90.6861 322° Northwest 142 163 4,600 49 Level Memphis Center
Sun 09:50:04 AM 33.1875 -90.7142 321° Northwest 140 161 4,700 49 Climbing Memphis Center
Sun 09:51:05 AM 33.2192 -90.7400 326° Northwest 138 159 4,700 -49 Level Memphis Center
Sun 09:52:07 AM 33.2503 -90.7681 323° Northwest 139 160 4,600 -146 Descending Memphis Center
Sun 09:53:08 AM 33.2767 -90.8131 305° West 139 160 4,400 -195 Descending Memphis Center
Sun 09:54:10 AM 33.3108 -90.8389 328° Northwest 139 160 4,200 -244 Descending Memphis Center
Sun 09:55:11 AM 33.3464 -90.8661 327° Northwest 145 167 3,900 -244 Descending Memphis Center
Sun 09:56:13 AM 33.3814 -90.8956 325° Northwest 150 173 3,700 -194 Descending Memphis Center
Sun 09:57:15 AM 33.4164 -90.9231 327° Northwest 151 174 3,500 -244 Descending Memphis Center
Sun 09:58:16 AM 33.4528 -90.9500 328° Northwest 152 175 3,200 -146 Descending Memphis Center
Sun 09:59:18 AM 33.4975 -90.9803 331° Northwest 153 176 3,200 49 Level Memphis Center
Sun 10:00:19 AM 33.5106 -91.0206 291° West 141 162 3,300 49 Climbing Memphis Center
Sun 10:01:21 AM 33.5158 -91.0633 278° West 134 154 3,300 -48 Level Memphis Center
Sun 10:02:23 AM 33.5164 -91.1061 271° West 130 150 3,200 -146 Descending Memphis Center
Sun 10:03:24 AM 33.5186 -91.1514 273° West 133 153 3,000 -146 Descending Memphis Center
Sun 10:04:26 AM 33.5264 -91.1958 282° West 136 157 2,900 -48 Descending Memphis Center
Sun 10:05:28 AM 33.5397 -91.2406 290° West 135 155 2,900 -35 Level Memphis Center
Sun 10:07:19 AM 33.5508 -91.3128 280° West 74 85 2,800 105 Descending Memphis Center
Sun 10:08:20 AM 33.5481 -91.3544 265° West 112 129 3,200 244 Climbing Memphis Center
Sun 10:09:22 AM 33.5478 -91.3942 270° West 121 139 3,300 -20 Climbing Memphis Center
Sun 10:11:00 AM 33.5728 -91.4675 292° West  Level FlightAware Approximate
Sun 10:18:00 AM 33.6796 -91.7821 292° West  Level FlightAware Approximate
Sun 10:19:00 AM 33.6948 -91.8271 292° West  Level FlightAware Approximate
Sun 10:20:00 AM 33.7099 -91.8721 292° West  Level FlightAware Approximate
Sun 10:21:00 AM 33.7251 -91.9171 292° West  Level FlightAware Approximate
Sun 10:22:00 AM 33.7374 -91.9630 288° West  Level FlightAware Approximate
Sun 10:23:00 AM 33.7496 -92.0089 288° West  Level FlightAware Approximate
Sun 10:24:00 AM 33.7619 -92.0547 288° West  Level FlightAware Approximate
Sun 10:25:00 AM 33.7741 -92.1006 288° West  Level FlightAware Approximate
Sun 10:26:00 AM 33.7864 -92.1465 288° West  Level FlightAware Approximate
Sun 10:27:00 AM 33.7986 -92.1925 288° West  Level FlightAware Approximate
Sun 10:28:00 AM 33.8108 -92.2384 288° West  Level FlightAware Approximate
Sun 10:29:00 AM 33.8229 -92.2843 288° West  Level FlightAware Approximate
Sun 10:30:00 AM 33.8351 -92.3303 288° West  Level FlightAware Approximate
Sun 10:31:00 AM 33.8472 -92.3763 288° West  Level FlightAware Approximate
Sun 10:32:00 AM 33.8594 -92.4222 288° West  Level FlightAware Approximate
Sun 10:32:51 AM 33.6647 -92.3694 290° West 134 154 2,700  Level Memphis Center
Sun 10:33:00 AM 33.8729 -92.4704 290° West  Level FlightAware Approximate
Sun 10:33:53 AM 33.6781 -92.4117 291° West 134 154 2,700  Level Memphis Center
Sun 10:34:00 AM 33.8867 -92.5157 290° West  Level FlightAware Approximate
Sun 10:34:55 AM 33.6892 -92.4517 288° West 131 151 2,900  Level Memphis Center
Sun 10:35:00 AM 33.9006 -92.5610 290° West  Level FlightAware Approximate
Sun 10:35:56 AM 33.6994 -92.4903 288° West 126 145 3,200  Level Memphis Center
Sun 10:36:00 AM 33.9143 -92.6063 290° West  Level FlightAware Approximate
Sun 10:36:58 AM 33.7103 -92.5281 289° West 123 142 3,600  Level Memphis Center
Sun 10:37:00 AM 33.9281 -92.6516 290° West  Level FlightAware Approximate
Sun 10:38:00 AM 33.9419 -92.6970 290° West  Level FlightAware Approximate
Sun 10:38:00 AM 33.7233 -92.5739 289° West 121 139 4,100  Level Memphis Center
Sun 10:39:02 AM 33.7333 -92.6119 288° West 120 138 4,500 339 Climbing Memphis Center
Sun 10:40:04 AM 33.7425 -92.6500 286° West 120 138 4,800 290 Climbing Memphis Center
Sun 10:41:06 AM 33.7517 -92.6875 286° West 119 137 5,100 339 Climbing Memphis Center
Sun 10:42:08 AM 33.7625 -92.7261 289° West 119 137 5,500 390 Climbing Memphis Center
Sun 10:43:09 AM 33.7669 -92.7642 278° West 119 137 5,900 390 Climbing Memphis Center
Sun 10:44:11 AM 33.7814 -92.8117 290° West 124 143 6,300 387 Climbing Memphis Center
Sun 10:45:13 AM 33.7939 -92.8500 291° West 123 142 6,700 194 Climbing Memphis Center
Sun 10:46:15 AM 33.8139 -92.8892 302° West 132 152 6,700 48 Level Memphis Center
Sun 10:47:17 AM 33.8289 -92.9328 293° West 139 160 6,800 48 Climbing Memphis Center
Sun 10:48:19 AM 33.8425 -92.9778 290° West 143 165 6,800  Level Memphis Center
Sun 10:49:21 AM 33.8639 -93.0194 302° West 145 167 6,800 -48 Level Memphis Center
Sun 10:50:23 AM 33.8747 -93.0653 286° West 143 165 6,700 -48 Descending Memphis Center
Sun 10:51:25 AM 33.8950 -93.1150 296° West 139 160 6,700 -97 Level Memphis Center
Sun 10:52:27 AM 33.9192 -93.1517 308° West 139 160 6,500 -98 Descending Memphis Center
Sun 10:53:28 AM 33.9489 -93.1833 319° Northwest 140 161 6,500  Level Memphis Center
Sun 10:54:30 AM 33.9628 -93.2267 291° West 135 155 6,500  Level Memphis Center
Sun 10:55:32 AM 33.9678 -93.2692 278° West 133 153 6,500 54 Level Memphis Center
Sun 10:56:22 AM 33.9728 -93.3058 279° West 137 158 6,600  Climbing Memphis Center
Sun 10:57:24 AM 33.9919 -93.3542 296° West 133 153 6,500 -48 Descending Memphis Center
Sun 10:58:26 AM 34.0064 -93.3956 293° West 135 155 6,500  Level Memphis Center
Sun 10:59:30 AM 34.0222 -93.4358 295° West 133 153 6,500  Level Memphis Center
Sun 11:00:32 AM 34.0364 -93.4764 293° West 132 152 6,500  Level Memphis Center
Sun 11:01:34 AM 34.0497 -93.5175 291° West 132 152 6,500  Level Memphis Center
Sun 11:02:35 AM 34.0636 -93.5575 293° West 131 151 6,500  Level Memphis Center
Sun 11:03:37 AM 34.0803 -93.6069 292° West 131 151 6,500  Level Memphis Center
Sun 11:04:39 AM 34.0939 -93.6481 292° West 132 152 6,500  Level Memphis Center
Sun 11:05:41 AM 34.1083 -93.6894 293° West 133 153 6,500  Level Memphis Center
Sun 11:06:43 AM 34.1225 -93.7319 292° West 135 155 6,500  Level Memphis Center
Sun 11:07:53 AM 34.1397 -93.7850 291° West 133 153 6,500  Level Fort Worth Center
Sun 11:08:53 AM 34.1533 -93.8247 293° West 133 153 6,500  Level Fort Worth Center
Sun 11:09:53 AM 34.1669 -93.8642 293° West 133 153 6,500  Level Fort Worth Center
Sun 11:10:53 AM 34.1808 -93.9064 292° West 133 153 6,500 50 Level Fort Worth Center
Sun 11:11:53 AM 34.1964 -93.9458 296° West 133 153 6,600 50 Climbing Fort Worth Center
Sun 11:12:53 AM 34.2081 -93.9856 290° West 133 153 6,600  Level Fort Worth Center
Sun 11:13:53 AM 34.2217 -94.0278 291° West 133 153 6,600  Level Fort Worth Center
Sun 11:14:53 AM 34.2375 -94.0725 293° West 133 153 6,600  Level Fort Worth Center
Sun 11:15:53 AM 34.2511 -94.1169 290° West 138 159 6,600  Level Fort Worth Center
Sun 11:16:53 AM 34.2669 -94.1592 294° West 138 159 6,600  Level Fort Worth Center
Sun 11:17:53 AM 34.2803 -94.1989 292° West 138 159 6,600  Level Fort Worth Center
Sun 11:18:53 AM 34.2961 -94.2436 293° West 138 159 6,600  Level Fort Worth Center
Sun 11:19:53 AM 34.3097 -94.2858 291° West 143 165 6,600  Level Fort Worth Center
Sun 11:20:53 AM 34.3233 -94.3306 290° West 143 165 6,600  Level Fort Worth Center
Sun 11:21:53 AM 34.3389 -94.3703 295° West 149 171 6,600  Level Fort Worth Center
Sun 11:22:53 AM 34.3503 -94.4150 287° West 144 166 6,600  Level Fort Worth Center
Sun 11:23:53 AM 34.3683 -94.4647 294° West 144 166 6,600  Level Fort Worth Center
Sun 11:24:53 AM 34.3839 -94.5072 294° West 144 166 6,600  Level Fort Worth Center
Sun 11:25:53 AM 34.3975 -94.5494 291° West 144 166 6,600  Level Fort Worth Center
Sun 11:26:53 AM 34.4108 -94.5867 293° West 144 166 6,600  Level Fort Worth Center
Sun 11:27:53 AM 34.4242 -94.6342 289° West 139 160 6,600  Level Fort Worth Center
Sun 11:28:53 AM 34.4378 -94.6739 293° West 139 160 6,600  Level Fort Worth Center
Sun 11:29:53 AM 34.4511 -94.7164 291° West 139 160 6,600  Level Fort Worth Center
Sun 11:30:53 AM 34.4644 -94.7586 291° West 134 154 6,600  Level Fort Worth Center
Sun 11:31:53 AM 34.4778 -94.7961 293° West 129 148 6,600  Level Fort Worth Center
Sun 11:32:53 AM 34.4892 -94.8386 288° West 129 148 6,600  Level Fort Worth Center
Sun 11:33:53 AM 34.5025 -94.8811 291° West 129 148 6,600  Level Fort Worth Center
Sun 11:34:53 AM 34.5181 -94.9233 294° West 129 148 6,600  Level Fort Worth Center
Sun 11:35:53 AM 34.5292 -94.9658 288° West 129 148 6,600  Level Fort Worth Center
Sun 11:36:53 AM 34.5447 -95.0058 295° West 129 148 6,600  Level Fort Worth Center
Sun 11:37:53 AM 34.5581 -95.0458 292° West 129 148 6,600  Level Fort Worth Center
Sun 11:38:53 AM 34.5692 -95.0883 288° West 129 148 6,600  Level Fort Worth Center
Sun 11:39:53 AM 34.5825 -95.1283 292° West 129 148 6,600  Level Fort Worth Center
Sun 11:40:53 AM 34.5956 -95.1683 292° West 129 148 6,600  Level Fort Worth Center
Sun 11:41:53 AM 34.6108 -95.2083 295° West 129 148 6,600  Level Fort Worth Center
Sun 11:42:53 AM 34.6264 -95.2508 294° West 134 154 6,600  Level Fort Worth Center
Sun 11:43:53 AM 34.6375 -95.2911 289° West 134 154 6,600  Level Fort Worth Center
Sun 11:44:53 AM 34.6506 -95.3361 289° West 134 154 6,600  Level Fort Worth Center
Sun 11:45:53 AM 34.6661 -95.3811 293° West 134 154 6,600  Level Fort Worth Center
Sun 11:46:53 AM 34.6792 -95.4186 293° West 134 154 6,600  Level Fort Worth Center
Sun 11:47:53 AM 34.6922 -95.4589 292° West 134 154 6,600  Level Fort Worth Center
Sun 11:48:53 AM 34.7075 -95.5014 294° West 129 148 6,600  Level Fort Worth Center
Sun 11:49:53 AM 34.7186 -95.5467 287° West 135 155 6,600  Level Fort Worth Center
Sun 11:50:53 AM 34.7275 -95.5869 285° West 135 155 6,600  Level Fort Worth Center
Sun 11:51:53 AM 34.7408 -95.6294 291° West 130 150 6,600  Level Fort Worth Center
Sun 11:52:53 AM 34.7558 -95.6722 293° West 130 150 6,600  Level Fort Worth Center
Sun 11:53:53 AM 34.7692 -95.7150 291° West 130 150 6,600  Level Fort Worth Center
Sun 11:54:53 AM 34.7822 -95.7575 291° West 130 150 6,600  Level Fort Worth Center
Sun 11:55:53 AM 34.7953 -95.8003 290° West 130 150 6,600  Level Fort Worth Center
Sun 11:56:53 AM 34.8083 -95.8431 290° West 130 150 6,600  Level Fort Worth Center
Sun 11:57:53 AM 34.8214 -95.8858 290° West 130 150 6,600  Level Fort Worth Center
Sun 11:58:53 AM 34.8322 -95.9286 287° West 135 155 6,600  Level Fort Worth Center
Sun 11:59:53 AM 34.8494 -95.9739 295° West 135 155 6,600  Level Fort Worth Center
Sun 12:00:53 PM 34.8644 -96.0142 294° West 135 155 6,600  Level Fort Worth Center
Sun 12:01:53 PM 34.8756 -96.0619 286° West 135 155 6,600  Level Fort Worth Center
Sun 12:02:53 PM 34.8906 -96.1047 293° West 140 161 6,600  Level Fort Worth Center
Sun 12:03:53 PM 34.9056 -96.1478 293° West 145 167 6,600  Level Fort Worth Center
Sun 12:04:53 PM 34.9206 -96.1931 292° West 145 167 6,600  Level Fort Worth Center
Sun 12:05:53 PM 34.9314 -96.2411 285° West 145 167 6,600  Level Fort Worth Center
Sun 12:06:53 PM 34.9464 -96.2864 292° West 145 167 6,600  Level Fort Worth Center
Sun 12:07:53 PM 34.9614 -96.3292 293° West 145 167 6,600  Level Fort Worth Center
Sun 12:08:53 PM 34.9764 -96.3772 291° West 150 173 6,600  Level Fort Worth Center
Sun 12:09:53 PM 34.9914 -96.4250 291° West 150 173 6,600  Level Fort Worth Center
Sun 12:10:53 PM 35.0044 -96.4706 289° West 145 167 6,600  Level Fort Worth Center
Sun 12:11:53 PM 35.0214 -96.5186 293° West 145 167 6,600 50 Level Fort Worth Center
Sun 12:12:53 PM 35.0342 -96.5667 288° West 145 167 6,700 50 Climbing Fort Worth Center
Sun 12:13:53 PM 35.0469 -96.6122 289° West 145 167 6,700  Level Fort Worth Center
Sun 12:14:15 PM 35.0578 -96.6400 295° West 148 170 6,700  Level Fort Worth Center
Sun 12:14:53 PM 35.0642 -96.6603 291° West 145 167 6,700  Level Fort Worth Center
Sun 12:15:22 PM 35.0725 -96.6906 289° West 148 170 6,700  Level Fort Worth Center
Sun 12:15:53 PM 35.0767 -96.7058 288° West 145 167 6,700  Level Fort Worth Center
Sun 12:16:23 PM 35.0875 -96.7361 294° West 148 170 6,700  Level Fort Worth Center
Sun 12:16:53 PM 35.0917 -96.7564 284° West 150 173 6,700  Level Fort Worth Center
Sun 12:17:24 PM 35.1003 -96.7867 289° West 148 170 6,700  Level Fort Worth Center
Sun 12:17:53 PM 35.1064 -96.8019 296° West 150 173 6,700  Level Fort Worth Center
Sun 12:18:24 PM 35.1172 -96.8350 292° West 149 171 6,700  Level Fort Worth Center
Sun 12:18:53 PM 35.1214 -96.8475 292° West 150 173 6,700  Level Fort Worth Center
Sun 12:19:19 PM 35.1278 -96.8756 286° West 147 169 6,700  Level Fort Worth Center
Sun 12:19:53 PM 35.1361 -96.8931 300° West 150 173 6,700  Level Fort Worth Center
Sun 12:20:20 PM 35.1444 -96.9236 288° West 147 169 6,700  Level Fort Worth Center
Sun 12:20:53 PM 35.1489 -96.9414 287° West 150 173 6,700  Level Fort Worth Center
Sun 12:21:21 PM 35.1594 -96.9717 293° West 148 170 6,700  Level Fort Worth Center
Sun 12:21:53 PM 35.1636 -96.9869 288° West 150 173 6,700  Level Fort Worth Center
Sun 12:22:15 PM 35.1719 -97.0172 289° West 150 173 6,700  Level Fort Worth Center
Sun 12:22:53 PM 35.1783 -97.0350 294° West 150 173 6,700  Level Fort Worth Center
Sun 12:23:34 PM 35.1911 -97.0783 290° West 150 173 6,700  Level Fort Worth Center
Sun 12:23:53 PM 35.1931 -97.0833 295° West 150 173 6,700  Level Fort Worth Center
Sun 12:24:29 PM 35.2036 -97.1214 289° West 149 171 6,700  Level Fort Worth Center
Sun 12:24:53 PM 35.2058 -97.1314 285° West 150 173 6,700  Level Fort Worth Center
Sun 12:25:30 PM 35.2183 -97.1697 292° West 149 171 6,700  Level Fort Worth Center
Sun 12:25:53 PM 35.2225 -97.1797 297° West 150 173 6,700  Level Fort Worth Center
Sun 12:26:24 PM 35.2308 -97.2153 286° West 149 171 6,700  Level Fort Worth Center
Sun 12:26:53 PM 35.2350 -97.2256 296° West 150 173 6,700  Level Fort Worth Center
Sun 12:27:25 PM 35.2456 -97.2611 290° West 149 171 6,700  Level Fort Worth Center
Sun 12:27:53 PM 35.2497 -97.2739 292° West 150 173 6,700  Level Fort Worth Center
Sun 12:28:26 PM 35.2603 -97.3067 292° West 148 170 6,700  Level Fort Worth Center
Sun 12:28:53 PM 35.2644 -97.3219 288° West 150 173 6,700  Level Fort Worth Center
Sun 12:29:26 PM 35.2728 -97.3550 287° West 148 170 6,700  Level Fort Worth Center
Sun 12:30:27 PM 35.2872 -97.4033 290° West 148 170 6,700  Level Fort Worth Center
Sun 12:31:34 PM 35.3039 -97.4567 291° West 148 170 6,700  Level Fort Worth Center
Sun 12:32:29 PM 35.3164 -97.5000 289° West 150 173 6,700  Level Fort Worth Center
Sun 12:33:35 PM 35.3311 -97.5508 290° West 149 171 6,700  Level Fort Worth Center
Sun 12:34:36 PM 35.3478 -97.5967 294° West 150 173 6,700  Level Fort Worth Center
Sun 12:35:31 PM 35.3622 -97.6453 290° West 149 171 6,700  Level Fort Worth Center
Sun 12:36:50 PM 35.3808 -97.7064 290° West 149 171 6,700 -83 Level Fort Worth Center
Sun 12:37:56 PM 35.3953 -97.7572 289° West 149 171 6,500 -175 Descending Fort Worth Center
Sun 12:38:33 PM 35.4056 -97.7856 294° West 151 174 6,400 -162 Descending Fort Worth Center
Sun 12:40:00 PM 35.4177 -97.8530 292° West  Level FlightAware Approximate

Login

Don't have an account? Register now (free) for customized features, flight alerts, and more!